Time;durP1;ratioP1;P1;durP2;ratioP2;P2;SDS_P1;SDS_P2;PMS_P1;PMS_P2;Temp;Humidity;BMP_temperature;BMP_pressure;BME280_temperature;BME280_humidity;BME280_pressure;Samples;Min_cycle;Max_cycle;Signal;HPM_P1;HPM_P2
2021/03/22 00:01:17;;;;;;;13.50;5.95;;;7.60;99.90;;;;;;5011137;28;20139;-78
2021/03/22 00:03:44;;;;;;;16.70;5.97;;;7.60;99.90;;;;;;5011750;28;20045;-78
2021/03/22 00:06:11;;;;;;;9.30;4.70;;;7.60;99.90;;;;;;5010969;28;20022;-78
2021/03/22 00:08:37;;;;;;;10.15;4.45;;;7.60;99.90;;;;;;5010971;28;20159;-78
2021/03/22 00:11:04;;;;;;;15.10;4.43;;;7.60;99.90;;;;;;5078262;28;20042;-77
2021/03/22 00:13:30;;;;;;;10.55;4.70;;;7.50;99.90;;;;;;5010750;28;20041;-78
2021/03/22 00:16:01;;;;;;;9.68;4.50;;;7.50;99.90;;;;;;5011033;28;20396;-76
2021/03/22 00:18:31;;;;;;;12.38;4.78;;;7.50;99.90;;;;;;5010800;28;20427;-77
2021/03/22 00:20:57;;;;;;;9.43;5.35;;;7.50;99.90;;;;;;5010554;28;20117;-77
2021/03/22 00:23:24;;;;;;;12.27;5.20;;;7.50;99.90;;;;;;5010633;28;20014;-80
2021/03/22 00:25:50;;;;;;;8.18;3.58;;;7.50;99.90;;;;;;5010644;28;20034;-79
2021/03/22 00:28:18;;;;;;;9.68;4.38;;;7.50;99.90;;;;;;5010426;28;20022;-81
2021/03/22 00:30:45;;;;;;;9.88;4.35;;;7.40;99.90;;;;;;5010587;28;20033;-77
2021/03/22 00:33:14;;;;;;;15.40;4.50;;;7.40;99.90;;;;;;5010385;28;20066;-76
2021/03/22 00:35:40;;;;;;;11.75;4.60;;;7.50;99.90;;;;;;5010745;28;20552;-78
2021/03/22 00:38:07;;;;;;;10.15;4.90;;;7.40;99.90;;;;;;5010709;28;20071;-78
2021/03/22 00:40:35;;;;;;;8.32;4.47;;;7.40;99.90;;;;;;5009310;28;20032;-77
2021/03/22 00:43:01;;;;;;;10.85;4.65;;;7.40;99.90;;;;;;5010488;28;20061;-77
2021/03/22 00:45:27;;;;;;;9.18;4.72;;;7.40;99.90;;;;;;5010291;28;20478;-77
2021/03/22 00:47:54;;;;;;;9.18;4.72;;;7.40;99.90;;;;;;5010370;28;20068;-79
2021/03/22 00:50:35;;;;;;;10.13;5.13;;;7.40;99.90;;;;;;5077891;28;20134;-79
2021/03/22 00:53:02;;;;;;;9.98;4.57;;;7.40;99.90;;;;;;5010189;28;20030;-78
2021/03/22 00:55:28;;;;;;;9.95;4.95;;;7.40;99.90;;;;;;5010104;28;20538;-77
2021/03/22 00:57:55;;;;;;;13.88;5.20;;;7.30;99.90;;;;;;5010163;28;20057;-80
2021/03/22 01:00:26;;;;;;;10.75;4.70;;;7.30;99.90;;;;;;5079470;28;20068;-78
2021/03/22 01:02:53;;;;;;;10.32;5.53;;;7.30;99.90;;;;;;5010393;28;20038;-80
2021/03/22 01:05:20;;;;;;;8.07;4.95;;;7.40;99.90;;;;;;5010106;28;20026;-79
2021/03/22 01:07:47;;;;;;;7.07;4.75;;;7.30;99.90;;;;;;5010076;28;20030;-81
2021/03/22 01:10:37;;;;;;;8.77;5.05;;;7.30;99.90;;;;;;5009709;28;20026;-81
2021/03/22 01:13:05;;;;;;;9.75;5.45;;;7.30;99.90;;;;;;5009873;28;20081;-79
2021/03/22 01:15:32;;;;;;;9.23;5.95;;;7.30;99.90;;;;;;5009984;28;20099;-77
2021/03/22 01:17:58;;;;;;;13.30;5.68;;;7.30;99.90;;;;;;5009884;28;20037;-78
2021/03/22 01:20:40;;;;;;;20.35;6.07;;;7.30;99.90;;;;;;5009899;28;20052;-77
2021/03/22 01:23:06;;;;;;;12.57;5.15;;;7.30;99.90;;;;;;5010089;28;20388;-77
2021/03/22 01:25:53;;;;;;;11.60;5.55;;;7.30;99.90;;;;;;5009798;28;20044;-77
2021/03/22 01:28:20;;;;;;;9.98;5.15;;;7.30;99.90;;;;;;5009797;28;20472;-80
2021/03/22 01:30:53;;;;;;;11.25;5.95;;;7.30;99.90;;;;;;5009735;28;20022;-77
2021/03/22 01:33:25;;;;;;;11.23;5.13;;;7.20;99.90;;;;;;5009963;28;20041;-77
2021/03/22 01:35:53;;;;;;;14.52;6.40;;;7.20;99.90;;;;;;5009588;28;20034;-76
2021/03/22 01:38:20;;;;;;;9.00;5.57;;;7.20;99.90;;;;;;5009627;28;20018;-80
2021/03/22 01:40:52;;;;;;;13.38;5.18;;;7.20;99.90;;;;;;5009682;28;20030;-78
2021/03/22 01:43:44;;;;;;;11.95;5.90;;;7.20;99.90;;;;;;5009488;28;20361;-80
2021/03/22 01:46:10;;;;;;;10.73;6.53;;;7.10;99.90;;;;;;5068588;28;20384;-77
2021/03/22 01:48:36;;;;;;;12.23;5.18;;;7.10;99.90;;;;;;5009671;28;20054;-79
2021/03/22 01:51:03;;;;;;;13.20;5.78;;;7.10;99.90;;;;;;5009466;28;20401;-79
2021/03/22 01:53:29;;;;;;;12.18;6.35;;;7.10;99.90;;;;;;5012981;28;20038;-80
2021/03/22 01:56:13;;;;;;;18.63;6.85;;;7.10;99.90;;;;;;5012907;28;20022;-80
2021/03/22 01:58:40;;;;;;;13.73;5.88;;;7.00;99.90;;;;;;5012797;28;20056;-77
2021/03/22 02:01:06;;;;;;;13.35;6.82;;;7.00;99.90;;;;;;5012864;28;20030;-77
2021/03/22 02:03:32;;;;;;;19.05;6.90;;;7.00;99.90;;;;;;5012736;28;20033;-77
2021/03/22 02:05:59;;;;;;;15.65;6.03;;;7.00;99.90;;;;;;5012995;28;20499;-76
2021/03/22 02:08:38;;;;;;;13.70;6.63;;;7.00;99.90;;;;;;5012768;28;20033;-77
2021/03/22 02:11:24;;;;;;;14.98;6.40;;;7.00;99.90;;;;;;5012558;28;20034;-76
2021/03/22 02:13:57;;;;;;;15.77;7.35;;;7.00;99.90;;;;;;5012593;28;20050;-77
2021/03/22 02:16:44;;;;;;;17.70;6.88;;;6.90;99.90;;;;;;5014463;28;20468;-77
2021/03/22 02:19:32;;;;;;;12.55;6.63;;;6.90;99.90;;;;;;5012590;28;20030;-80
2021/03/22 02:22:09;;;;;;;13.20;6.60;;;6.90;99.90;;;;;;5012658;28;20391;-77
2021/03/22 02:25:00;;;;;;;10.43;5.88;;;6.90;99.90;;;;;;5012421;28;20026;-79
2021/03/22 02:27:54;;;;;;;13.68;6.65;;;6.80;99.90;;;;;;5012579;28;20120;-77
2021/03/22 02:30:44;;;;;;;16.00;6.85;;;6.80;99.90;;;;;;5012372;28;20025;-76
2021/03/22 02:33:48;;;;;;;11.80;5.35;;;6.80;99.90;;;;;;5012262;28;20050;-78
2021/03/22 02:36:58;;;;;;;12.02;6.10;;;6.80;99.90;;;;;;5012207;28;20026;-76
2021/03/22 02:39:32;;;;;;;10.25;6.05;;;6.70;99.90;;;;;;5012182;28;20034;-79
2021/03/22 02:42:00;;;;;;;13.13;6.18;;;6.70;99.90;;;;;;5012244;28;20053;-78
2021/03/22 02:44:32;;;;;;;15.05;5.88;;;6.70;99.90;;;;;;5012202;28;20432;-77
2021/03/22 02:47:08;;;;;;;12.82;7.13;;;6.70;99.90;;;;;;5012252;28;20029;-76
2021/03/22 02:49:38;;;;;;;17.08;7.88;;;6.70;99.90;;;;;;5080367;28;20084;-77
2021/03/22 02:52:37;;;;;;;14.13;6.82;;;6.70;99.90;;;;;;5012039;28;20406;-77
2021/03/22 02:55:21;;;;;;;17.00;6.50;;;6.60;99.90;;;;;;5011938;28;20037;-77
2021/03/22 02:57:55;;;;;;;17.10;6.30;;;6.70;99.90;;;;;;5080204;28;20387;-78
2021/03/22 03:00:46;;;;;;;8.98;4.88;;;6.60;99.90;;;;;;5011900;28;20483;-80
2021/03/22 03:03:16;;;;;;;14.95;5.60;;;6.60;99.90;;;;;;5010925;28;20418;-80
2021/03/22 03:05:49;;;;;;;10.93;5.68;;;6.70;99.90;;;;;;5011866;28;20071;-81
2021/03/22 03:08:16;;;;;;;;;;;6.70;99.90;;;;;;5012253;28;20033;-80
2021/03/22 03:10:42;;;;;;;23.65;6.15;;;6.70;99.90;;;;;;5079734;28;20351;-78
2021/03/22 03:13:08;;;;;;;11.60;5.72;;;6.70;99.90;;;;;;5011499;28;20053;-80
2021/03/22 03:15:34;;;;;;;14.27;6.07;;;6.70;99.90;;;;;;5079599;28;20365;-78
2021/03/22 03:18:00;;;;;;;10.18;5.13;;;6.70;99.90;;;;;;5079575;28;20109;-79
2021/03/22 03:20:29;;;;;;;12.13;6.07;;;6.80;99.90;;;;;;5011684;28;20033;-78
2021/03/22 03:22:56;;;;;;;9.48;5.32;;;6.70;99.90;;;;;;5011806;28;20029;-77
2021/03/22 03:25:24;;;;;;;12.63;5.70;;;6.70;99.90;;;;;;5011497;28;20026;-79
2021/03/22 03:27:50;;;;;;;11.50;5.45;;;6.80;99.90;;;;;;5011463;28;20057;-76
2021/03/22 03:30:27;;;;;;;14.57;5.50;;;6.80;99.90;;;;;;5011501;28;20030;-80
2021/03/22 03:32:54;;;;;;;11.63;4.80;;;6.80;99.90;;;;;;5012407;28;20026;-77
2021/03/22 03:35:23;;;;;;;13.50;5.05;;;6.80;99.90;;;;;;5011320;28;20065;-79
2021/03/22 03:37:49;;;;;;;10.57;5.15;;;6.80;99.90;;;;;;5011377;28;20069;-80
2021/03/22 03:40:32;;;;;;;12.75;5.57;;;6.80;99.90;;;;;;5011255;28;20048;-79
2021/03/22 03:42:58;;;;;;;9.55;5.05;;;6.80;99.90;;;;;;5011362;28;20026;-81
2021/03/22 03:45:27;;;;;;;14.60;5.00;;;6.70;99.90;;;;;;5011309;28;20026;-78
2021/03/22 03:47:53;;;;;;;9.88;5.25;;;6.70;99.90;;;;;;5011184;28;20537;-78
2021/03/22 03:50:25;;;;;;;7.15;4.18;;;6.70;99.90;;;;;;5011491;28;20018;-81
2021/03/22 03:52:51;;;;;;;9.52;5.00;;;6.70;99.90;;;;;;5011089;28;20105;-77
2021/03/22 03:55:18;;;;;;;10.52;4.82;;;6.80;99.90;;;;;;5010985;28;20095;-77
2021/03/22 03:57:48;;;;;;;13.90;5.70;;;6.80;99.90;;;;;;5011209;28;20083;-77
2021/03/22 04:00:33;;;;;;;8.68;4.80;;;6.80;99.90;;;;;;5011157;28;20121;-77
2021/03/22 04:03:27;;;;;;;8.40;4.15;;;6.70;99.90;;;;;;5078905;28;20095;-77
2021/03/22 04:06:05;;;;;;;12.00;4.78;;;6.80;99.90;;;;;;5010965;28;20053;-80
2021/03/22 04:08:32;;;;;;;9.70;4.72;;;6.70;99.90;;;;;;5010759;28;20056;-79
2021/03/22 04:11:00;;;;;;;12.18;5.00;;;6.60;99.90;;;;;;5010624;28;20044;-80
2021/03/22 04:13:27;;;;;;;11.05;4.90;;;6.50;99.90;;;;;;5010846;28;20475;-79
2021/03/22 04:15:54;;;;;;;9.45;4.60;;;6.40;99.90;;;;;;5078389;28;20472;-78
2021/03/22 04:18:20;;;;;;;8.05;4.72;;;6.30;99.90;;;;;;5010889;28;20040;-77
2021/03/22 04:20:46;;;;;;;9.95;5.32;;;6.30;99.90;;;;;;5010620;28;20022;-77
2021/03/22 04:23:12;;;;;;;9.35;4.55;;;6.30;99.90;;;;;;5010548;28;20075;-78
2021/03/22 04:25:37;;;;;;;10.02;4.80;;;6.30;99.90;;;;;;5010722;28;20471;-77
2021/03/22 04:28:04;;;;;;;12.35;5.30;;;6.30;99.90;;;;;;5010677;28;20029;-77
2021/03/22 04:30:29;;;;;;;10.27;5.40;;;6.30;99.90;;;;;;5010439;28;20041;-79
2021/03/22 04:32:55;;;;;;;9.70;5.13;;;6.30;99.90;;;;;;5010684;28;20483;-77
2021/03/22 04:35:23;;;;;;;11.38;4.65;;;6.40;99.90;;;;;;5010425;28;20029;-77
2021/03/22 04:37:49;;;;;;;10.80;5.63;;;6.40;99.90;;;;;;5010411;28;20109;-77
2021/03/22 04:40:21;;;;;;;11.52;5.32;;;6.40;99.90;;;;;;5010469;28;20061;-80
2021/03/22 04:42:47;;;;;;;10.75;5.53;;;6.40;99.90;;;;;;5078186;28;20025;-77
2021/03/22 04:45:14;;;;;;;10.93;4.60;;;6.40;99.90;;;;;;5010365;28;20436;-79
2021/03/22 04:47:40;;;;;;;11.02;4.57;;;6.40;99.90;;;;;;5078774;28;20030;-81
2021/03/22 04:50:07;;;;;;;10.23;5.20;;;6.40;99.90;;;;;;5062309;28;20125;-78
2021/03/22 04:52:33;;;;;;;10.32;5.35;;;6.30;99.90;;;;;;5010504;28;20091;-76
2021/03/22 04:54:59;;;;;;;11.07;4.72;;;6.30;99.90;;;;;;5077952;28;20046;-76
2021/03/22 04:57:30;;;;;;;10.93;4.85;;;6.30;99.90;;;;;;5010055;28;20037;-76
2021/03/22 04:59:57;;;;;;;13.60;4.75;;;6.30;99.90;;;;;;5010171;28;20030;-77
2021/03/22 05:02:23;;;;;;;9.73;4.28;;;6.20;99.90;;;;;;5010183;28;20049;-80
2021/03/22 05:04:50;;;;;;;11.88;5.28;;;6.20;99.90;;;;;;5010062;28;20032;-76
2021/03/22 05:07:17;;;;;;;10.52;4.82;;;6.30;99.90;;;;;;5077816;28;20038;-79
2021/03/22 05:09:43;;;;;;;13.52;4.90;;;6.30;99.90;;;;;;5010268;28;20033;-76
2021/03/22 05:12:11;;;;;;;10.10;4.45;;;6.30;99.90;;;;;;5009879;28;20049;-77
2021/03/22 05:14:37;;;;;;;7.28;4.70;;;6.30;99.90;;;;;;5009947;28;20056;-80
2021/03/22 05:17:03;;;;;;;10.65;5.05;;;6.30;99.90;;;;;;5010014;28;20029;-76
2021/03/22 05:19:29;;;;;;;9.15;4.78;;;6.30;99.90;;;;;;5077554;28;20148;-82
2021/03/22 05:21:59;;;;;;;8.20;4.28;;;6.30;99.90;;;;;;5009778;28;20506;-79
2021/03/22 05:24:26;;;;;;;8.60;3.97;;;6.40;99.90;;;;;;5009722;28;20036;-78
2021/03/22 05:26:53;;;;;;;10.85;4.68;;;6.30;99.90;;;;;;5009348;28;20024;-77
2021/03/22 05:29:24;;;;;;;17.65;4.55;;;6.30;99.90;;;;;;5009799;28;20029;-82
2021/03/22 05:31:52;;;;;;;12.52;5.13;;;6.40;99.90;;;;;;5009886;28;20034;-78
2021/03/22 05:34:28;;;;;;;8.02;4.50;;;6.40;99.90;;;;;;5010001;28;20038;-78
2021/03/22 05:36:54;;;;;;;19.35;4.50;;;6.40;99.90;;;;;;5077493;28;20418;-80
2021/03/22 05:39:21;;;;;;;8.63;4.25;;;6.40;99.90;;;;;;5009700;28;20026;-81
2021/03/22 05:42:12;;;;;;;10.45;4.30;;;6.40;99.90;;;;;;5077123;28;20060;-79
2021/03/22 05:44:53;;;;;;;9.00;4.38;;;6.40;99.90;;;;;;5028104;28;20121;-77
2021/03/22 05:47:42;;;;;;;10.38;5.05;;;6.40;99.90;;;;;;5077242;28;20113;-79
2021/03/22 05:50:34;;;;;;;9.98;5.00;;;6.50;99.90;;;;;;5009557;28;20046;-82
2021/03/22 05:53:21;;;;;;;11.98;4.65;;;6.50;99.90;;;;;;5009453;28;20045;-81
2021/03/22 05:55:55;;;;;;;13.23;5.47;;;6.50;99.90;;;;;;5009328;28;20037;-78
2021/03/22 05:58:50;;;;;;;10.63;4.18;;;6.50;99.90;;;;;;5074863;28;20022;-78
2021/03/22 06:01:41;;;;;;;8.50;4.47;;;6.50;99.90;;;;;;5009240;28;20556;-78
2021/03/22 06:04:30;;;;;;;11.30;5.10;;;6.60;99.90;;;;;;5010619;28;20026;-79
2021/03/22 06:06:57;;;;;;;8.20;4.28;;;6.60;99.90;;;;;;5077093;28;20563;-83
2021/03/22 06:09:32;;;;;;;8.82;4.18;;;6.60;99.90;;;;;;5009312;28;20026;-82
2021/03/22 06:12:10;;;;;;;9.98;4.75;;;6.60;99.90;;;;;;5009184;28;20518;-81
2021/03/22 06:14:54;;;;;;;13.30;3.85;;;6.60;99.90;;;;;;5009141;28;20042;-80
2021/03/22 06:17:46;;;;;;;9.90;4.32;;;6.70;99.90;;;;;;5009123;28;20052;-78
2021/03/22 06:20:38;;;;;;;15.75;4.53;;;6.70;99.90;;;;;;5029327;28;20045;-78
2021/03/22 06:23:17;;;;;;;11.00;4.88;;;6.70;99.90;;;;;;5009259;28;20034;-77
2021/03/22 06:25:43;;;;;;;8.30;4.28;;;6.70;99.90;;;;;;5009139;28;20037;-78
2021/03/22 06:28:15;;;;;;;11.00;3.78;;;6.70;99.90;;;;;;5009167;28;20038;-77
2021/03/22 06:31:07;;;;;;;9.77;4.88;;;6.80;99.90;;;;;;5009122;28;20041;-80
2021/03/22 06:33:33;;;;;;;9.82;4.38;;;6.80;99.90;;;;;;5008870;28;20042;-78
2021/03/22 06:36:10;;;;;;;10.65;4.20;;;6.90;99.90;;;;;;5009021;28;20030;-81
2021/03/22 06:38:37;;;;;;;14.23;4.68;;;6.90;99.90;;;;;;5009642;28;20040;-79
2021/03/22 06:41:40;;;;;;;11.85;5.13;;;6.90;99.90;;;;;;5012370;28;20079;-82
2021/03/22 06:44:19;;;;;;;7.03;4.32;;;7.00;99.90;;;;;;5080459;28;20026;-79
2021/03/22 06:46:54;;;;;;;8.40;4.18;;;7.00;99.90;;;;;;5012188;28;20434;-78
2021/03/22 06:49:29;;;;;;;10.68;4.32;;;7.10;99.90;;;;;;5080355;28;20030;-77
2021/03/22 06:52:12;;;;;;;8.05;3.92;;;7.10;99.90;;;;;;5012400;28;20490;-78
2021/03/22 06:54:59;;;;;;;8.32;4.03;;;7.10;99.90;;;;;;5080017;28;20038;-78
2021/03/22 06:57:27;;;;;;;9.35;4.30;;;7.20;99.90;;;;;;5011871;28;20038;-81
2021/03/22 07:00:24;;;;;;;11.18;4.38;;;7.20;99.90;;;;;;5012071;28;20034;-80
2021/03/22 07:02:52;;;;;;;10.05;4.65;;;7.20;99.90;;;;;;5011892;28;20104;-80
2021/03/22 07:05:24;;;;;;;6.97;4.50;;;7.30;99.90;;;;;;5079707;28;20036;-81
2021/03/22 07:07:55;;;;;;;9.80;4.10;;;7.40;99.90;;;;;;5011976;28;20062;-81
2021/03/22 07:10:24;;;;;;;8.63;4.68;;;7.40;99.90;;;;;;5011531;28;20384;-80
2021/03/22 07:13:04;;;;;;;11.45;5.63;;;7.50;99.90;;;;;;5011531;28;20057;-78
2021/03/22 07:15:37;;;;;;;9.43;4.68;;;7.60;99.90;;;;;;5011545;28;20076;-78
2021/03/22 07:18:05;;;;;;;;;;;7.70;99.90;;;;;;5012306;28;20030;-81
2021/03/22 07:20:32;;;;;;;16.33;5.00;;;7.80;99.90;;;;;;5016405;28;19910;-77
2021/03/22 07:23:26;;;;;;;7.53;4.47;;;7.90;99.90;;;;;;5011719;28;20121;-79
2021/03/22 07:25:57;;;;;;;7.28;3.38;;;8.10;99.90;;;;;;5013401;28;20037;-79
2021/03/22 07:28:52;;;;;;;7.40;3.65;;;8.10;99.90;;;;;;5011638;28;20400;-81
2021/03/22 07:31:43;;;;;;;8.07;2.78;;;8.30;99.90;;;;;;5050775;28;20056;-77
2021/03/22 07:34:43;;;;;;;8.32;2.88;;;8.40;99.90;;;;;;5011305;28;20095;-77
2021/03/22 07:37:15;;;;;;;5.75;2.75;;;8.50;99.90;;;;;;5011281;28;20033;-76
2021/03/22 07:39:46;;;;;;;10.77;3.47;;;8.60;99.90;;;;;;5011394;28;20086;-79
2021/03/22 07:42:25;;;;;;;7.65;3.13;;;8.80;99.90;;;;;;5011222;28;20018;-77
2021/03/22 07:44:57;;;;;;;6.13;2.33;;;8.80;99.90;;;;;;5011303;28;20069;-77
2021/03/22 07:47:36;;;;;;;3.78;2.50;;;8.80;99.90;;;;;;5011100;28;20030;-76
2021/03/22 07:50:11;;;;;;;9.13;2.65;;;8.90;99.90;;;;;;5010905;28;20087;-77
2021/03/22 07:52:41;;;;;;;4.28;2.15;;;9.00;99.90;;;;;;5011295;28;20121;-76
2021/03/22 07:55:28;;;;;;;4.20;1.77;;;9.20;99.90;;;;;;5011137;28;20041;-78
2021/03/22 07:58:01;;;;;;;6.68;2.05;;;9.40;99.90;;;;;;5014532;28;20042;-76
2021/03/22 08:01:15;;;;;;;6.07;2.00;;;9.50;99.90;;;;;;5011104;28;20030;-77
2021/03/22 08:03:44;;;;;;;2.10;1.23;;;9.50;99.90;;;;;;5026300;28;20281;-78
2021/03/22 08:06:37;;;;;;;5.80;1.20;;;9.50;99.90;;;;;;5078952;28;20029;-78
2021/03/22 08:09:20;;;;;;;2.63;1.05;;;9.70;99.90;;;;;;5010977;28;20053;-79
2021/03/22 08:11:46;;;;;;;2.88;1.45;;;9.80;99.90;;;;;;5010866;28;20054;-78
2021/03/22 08:14:56;;;;;;;2.87;1.37;;;10.00;99.90;;;;;;5010755;28;20550;-78
2021/03/22 08:17:47;;;;;;;2.05;1.17;;;10.10;99.90;;;;;;5014627;28;20026;-78
2021/03/22 08:20:24;;;;;;;4.53;1.02;;;10.10;99.90;;;;;;5031207;28;20064;-78
2021/03/22 08:23:02;;;;;;;4.72;1.02;;;10.10;99.90;;;;;;5014741;28;20103;-79
2021/03/22 08:25:51;;;;;;;1.85;1.02;;;10.30;99.90;;;;;;5010610;28;20067;-80
2021/03/22 08:28:39;;;;;;;1.77;0.70;;;10.40;99.90;;;;;;5010707;28;20037;-81
2021/03/22 08:31:30;;;;;;;3.42;0.85;;;10.40;99.90;;;;;;5078276;28;20054;-81
2021/03/22 08:34:06;;;;;;;1.70;1.00;;;10.10;99.90;;;;;;5010625;28;20038;-78
2021/03/22 08:36:52;;;;;;;1.90;0.88;;;10.00;99.90;;;;;;5014069;28;20033;-78
2021/03/22 08:39:42;;;;;;;6.40;0.90;;;10.00;99.90;;;;;;5010969;28;20029;-79
2021/03/22 08:42:16;;;;;;;1.60;1.02;;;10.00;99.90;;;;;;5010389;28;20037;-79
2021/03/22 08:44:52;;;;;;;3.17;1.02;;;10.00;99.90;;;;;;5010761;28;20037;-79
2021/03/22 08:47:36;;;;;;;1.52;0.80;;;10.30;99.90;;;;;;5010760;28;20029;-79
2021/03/22 08:50:12;;;;;;;3.50;1.10;;;10.60;99.90;;;;;;5010450;28;20026;-77
2021/03/22 08:52:58;;;;;;;1.15;0.57;;;10.80;99.90;;;;;;5077929;28;20120;-79
2021/03/22 08:55:27;;;;;;;2.45;0.80;;;10.70;99.90;;;;;;5010301;28;20065;-77
2021/03/22 08:58:07;;;;;;;2.05;0.70;;;10.50;99.90;;;;;;5010460;28;20034;-77
2021/03/22 09:00:44;;;;;;;2.20;0.68;;;10.40;99.90;;;;;;5009784;28;20026;-76
2021/03/22 09:03:21;;;;;;;0.60;0.47;;;10.50;99.90;;;;;;5111392;27;20026;-78
2021/03/22 09:06:09;;;;;;;0.47;0.40;;;10.50;99.90;;;;;;5010132;28;20038;-77
2021/03/22 09:08:38;;;;;;;0.80;0.50;;;10.40;99.90;;;;;;5009991;28;20530;-80
2021/03/22 09:11:24;;;;;;;1.73;0.55;;;10.40;99.90;;;;;;5009970;28;20109;-77
2021/03/22 09:14:20;;;;;;;1.17;1.00;;;10.50;99.90;;;;;;5010066;28;20046;-81
2021/03/22 09:16:51;;;;;;;0.90;0.40;;;10.40;99.90;;;;;;5077533;28;20030;-80
2021/03/22 09:19:20;;;;;;;2.38;0.95;;;10.20;99.90;;;;;;5009900;28;20038;-77
2021/03/22 09:22:10;;;;;;;0.50;0.47;;;10.00;99.90;;;;;;5009872;28;20030;-78
2021/03/22 09:24:45;;;;;;;0.95;0.60;;;9.90;99.90;;;;;;5009708;28;20026;-78
2021/03/22 09:27:17;;;;;;;1.27;0.60;;;9.90;99.90;;;;;;5009810;28;20033;-80
2021/03/22 09:29:53;;;;;;;1.30;0.75;;;9.90;99.90;;;;;;5009671;28;20022;-78
2021/03/22 09:32:29;;;;;;;1.85;0.70;;;9.90;99.90;;;;;;5009756;28;20040;-77
2021/03/22 09:35:14;;;;;;;1.00;0.35;;;9.90;99.90;;;;;;5009577;28;20038;-79
2021/03/22 09:37:49;;;;;;;1.15;0.40;;;9.90;99.90;;;;;;5009700;28;20033;-80
2021/03/22 09:40:24;;;;;;;1.17;0.70;;;9.90;99.90;;;;;;5009709;28;20030;-77
2021/03/22 09:43:03;;;;;;;0.80;0.80;;;9.80;99.90;;;;;;5009689;28;20030;-78
2021/03/22 09:45:30;;;;;;;4.90;1.60;;;9.80;99.90;;;;;;5009461;28;20034;-78
2021/03/22 09:48:19;;;;;;;2.38;0.80;;;9.80;99.90;;;;;;5009817;28;20487;-79
2021/03/22 09:51:03;;;;;;;0.70;0.40;;;9.80;99.90;;;;;;5009553;28;20030;-80
2021/03/22 09:54:04;;;;;;;1.90;0.50;;;9.80;99.90;;;;;;5010976;28;20034;-80
2021/03/22 09:57:02;;;;;;;4.00;0.70;;;9.70;99.90;;;;;;5009677;28;20029;-80
2021/03/22 09:59:37;;;;;;;3.35;0.60;;;9.70;99.90;;;;;;5009390;28;20030;-78
2021/03/22 10:02:31;;;;;;;0.90;0.75;;;9.70;99.90;;;;;;5077183;28;20030;-79
2021/03/22 10:05:49;;;;;;;0.77;0.75;;;9.50;99.90;;;;;;5011102;28;20049;-78
2021/03/22 10:08:26;;;;;;;0.85;0.63;;;9.40;99.90;;;;;;5052504;28;20045;-79
2021/03/22 10:10:56;;;;;;;0.75;0.57;;;9.30;99.90;;;;;;5009204;28;20096;-79
2021/03/22 10:13:30;;;;;;;0.80;0.52;;;9.30;99.90;;;;;;4991548;28;20091;-79
2021/03/22 10:16:19;;;;;;;2.30;0.60;;;9.40;99.90;;;;;;4993239;28;20385;-81
2021/03/22 10:18:54;;;;;;;1.45;0.45;;;9.40;99.90;;;;;;4991890;28;20111;-80
2021/03/22 10:21:30;;;;;;;1.98;0.77;;;9.60;99.90;;;;;;4993022;28;20473;-77
2021/03/22 10:24:20;;;;;;;0.80;0.47;;;9.70;99.90;;;;;;4993242;28;20029;-77
2021/03/22 10:26:48;;;;;;;0.95;0.50;;;9.90;99.90;;;;;;4992950;28;20031;-79
2021/03/22 10:29:20;;;;;;;0.73;0.50;;;9.90;99.90;;;;;;4992783;28;20034;-77
2021/03/22 10:32:14;;;;;;;0.28;0.28;;;10.00;99.90;;;;;;4992923;28;20538;-78
2021/03/22 10:34:45;;;;;;;1.83;0.60;;;10.00;99.90;;;;;;4992820;28;20042;-78
2021/03/22 10:37:16;;;;;;;0.52;0.40;;;10.00;99.90;;;;;;4992796;28;20115;-79
2021/03/22 10:39:48;;;;;;;1.08;0.80;;;10.10;99.90;;;;;;4991631;28;20034;-79
2021/03/22 10:42:22;;;;;;;3.20;0.90;;;9.90;99.90;;;;;;4992547;28;20026;-78
2021/03/22 10:44:49;;;;;;;0.95;0.65;;;9.90;99.90;;;;;;4992639;28;20115;-80
2021/03/22 10:47:19;;;;;;;2.55;0.80;;;9.80;99.90;;;;;;4992563;28;20109;-80
2021/03/22 10:49:46;;;;;;;1.33;0.80;;;9.70;99.90;;;;;;4992632;28;20030;-78
2021/03/22 10:52:42;;;;;;;1.27;0.98;;;9.60;99.90;;;;;;4992564;28;20050;-78
2021/03/22 10:55:26;;;;;;;3.33;1.30;;;9.30;99.90;;;;;;5000794;28;20061;-81
2021/03/22 10:57:53;;;;;;;1.48;1.05;;;9.00;99.90;;;;;;4992484;28;20053;-79
2021/03/22 11:00:34;;;;;;;6.07;1.50;;;8.70;99.90;;;;;;4992287;28;20023;-77
2021/03/22 11:03:03;;;;;;;1.30;0.98;;;8.70;99.90;;;;;;4991191;28;20099;-82
2021/03/22 11:05:37;;;;;;;1.50;0.98;;;8.60;99.90;;;;;;4991099;28;20045;-78
2021/03/22 11:08:26;;;;;;;1.35;1.00;;;8.80;99.90;;;;;;4992747;28;20050;-79
2021/03/22 11:11:05;;;;;;;1.85;1.00;;;8.80;99.90;;;;;;4993076;28;20027;-79
2021/03/22 11:13:35;;;;;;;0.80;0.80;;;8.80;99.90;;;;;;5073351;28;20066;-79
2021/03/22 11:16:06;;;;;;;1.15;0.85;;;8.70;99.90;;;;;;5073307;28;20400;-79
2021/03/22 11:18:33;;;;;;;4.15;1.95;;;8.80;99.90;;;;;;5073242;28;20025;-79
2021/03/22 11:21:00;;;;;;;3.63;1.48;;;8.80;99.90;;;;;;5074473;28;20024;-79
2021/03/22 11:23:44;;;;;;;0.80;0.73;;;8.80;99.90;;;;;;5074291;28;20029;-81
2021/03/22 11:26:25;;;;;;;1.67;0.98;;;8.80;99.90;;;;;;5073933;28;20036;-76
2021/03/22 11:29:11;;;;;;;1.95;0.95;;;9.10;99.90;;;;;;5074290;28;20024;-79
2021/03/22 11:31:40;;;;;;;1.23;0.88;;;9.40;99.90;;;;;;5066717;28;20060;-79
2021/03/22 11:34:25;;;;;;;1.10;0.70;;;9.80;99.90;;;;;;5074110;28;20032;-76
2021/03/22 11:37:21;;;;;;;0.80;0.70;;;10.10;99.90;;;;;;5072837;28;20052;-79
2021/03/22 11:40:09;;;;;;;1.15;0.93;;;10.40;99.90;;;;;;5062555;28;20037;-78
2021/03/22 11:43:01;;;;;;;0.70;0.70;;;10.80;99.90;;;;;;5074014;28;20024;-80
2021/03/22 11:45:36;;;;;;;0.80;0.60;;;11.20;99.90;;;;;;5073908;28;20082;-81
2021/03/22 11:48:04;;;;;;;0.73;0.50;;;11.60;99.90;;;;;;5074083;28;20033;-77
2021/03/22 11:51:01;;;;;;;2.92;0.63;;;11.60;99.90;;;;;;5073909;28;20021;-78
2021/03/22 11:53:29;;;;;;;1.48;0.85;;;11.80;99.90;;;;;;5065367;28;20071;-78
2021/03/22 11:56:14;;;;;;;0.50;0.50;;;12.20;99.90;;;;;;5073786;28;20367;-81
2021/03/22 11:58:42;;;;;;;1.38;0.63;;;11.70;99.90;;;;;;5073706;28;20040;-78
2021/03/22 12:01:24;;;;;;;0.50;0.50;;;11.60;99.90;;;;;;5073806;28;20028;-83
2021/03/22 12:04:04;;;;;;;0.77;0.50;;;11.10;99.90;;;;;;5073671;28;20482;-79
2021/03/22 12:06:32;;;;;;;1.48;0.47;;;10.80;99.90;;;;;;5072355;28;20024;-77
2021/03/22 12:08:58;;;;;;;0.90;0.47;;;10.80;99.90;;;;;;5073540;28;20042;-77
2021/03/22 12:11:28;;;;;;;1.02;0.40;;;10.90;99.90;;;;;;5061482;28;20395;-78
2021/03/22 12:13:56;;;;;;;1.15;0.55;;;10.60;99.90;;;;;;5010868;28;20049;-77
2021/03/22 12:16:24;;;;;;;0.70;0.32;;;10.30;99.90;;;;;;5010841;28;20472;-78
2021/03/22 12:18:52;;;;;;;0.43;0.40;;;10.50;99.90;;;;;;5010826;28;20030;-79
2021/03/22 12:21:18;;;;;;;5.32;0.60;;;10.50;99.90;;;;;;5010791;28;20022;-77
2021/03/22 12:23:45;;;;;;;1.05;0.75;;;10.50;99.90;;;;;;5013212;28;20025;-78
2021/03/22 12:26:19;;;;;;;1.08;0.88;;;11.00;99.90;;;;;;5013478;28;20026;-77
2021/03/22 12:28:56;;;;;;;0.40;0.40;;;11.20;99.90;;;;;;5010711;28;20515;-77
2021/03/22 12:31:35;;;;;;;0.63;0.60;;;11.20;99.90;;;;;;5010772;28;20022;-79
2021/03/22 12:34:05;;;;;;;1.58;0.68;;;11.20;99.90;;;;;;5010528;28;20121;-78
2021/03/22 12:36:32;;;;;;;0.80;0.60;;;11.10;99.90;;;;;;5010440;28;20030;-78
2021/03/22 12:38:58;;;;;;;0.65;0.60;;;11.40;99.90;;;;;;5078309;28;20022;-78
2021/03/22 12:41:32;;;;;;;1.60;0.70;;;11.60;99.90;;;;;;5010539;28;20033;-81
2021/03/22 12:44:00;;;;;;;1.42;0.65;;;11.60;99.90;;;;;;5010608;28;20029;-79
2021/03/22 12:46:26;;;;;;;0.80;0.55;;;11.10;99.90;;;;;;5010549;28;20082;-78
2021/03/22 12:48:53;;;;;;;0.77;0.60;;;10.70;99.90;;;;;;5010410;28;20030;-78
2021/03/22 12:51:19;;;;;;;2.33;0.50;;;10.70;99.90;;;;;;5010395;28;20495;-83
2021/03/22 12:53:45;;;;;;;0.63;0.60;;;10.70;99.90;;;;;;5010194;28;20062;-81
2021/03/22 12:56:13;;;;;;;0.47;0.40;;;10.70;99.90;;;;;;5010247;28;20130;-80
2021/03/22 12:58:39;;;;;;;0.73;0.52;;;10.80;99.90;;;;;;5010272;28;20041;-78
2021/03/22 13:01:06;;;;;;;0.57;0.40;;;10.90;99.90;;;;;;5077837;28;20045;-77
2021/03/22 13:03:32;;;;;;;1.92;0.73;;;11.40;99.90;;;;;;5077657;28;20037;-80
2021/03/22 13:05:58;;;;;;;0.30;0.30;;;11.80;99.90;;;;;;5010062;28;20030;-79
2021/03/22 13:08:28;;;;;;;0.80;0.73;;;12.10;99.90;;;;;;5010094;28;20036;-78
2021/03/22 13:10:58;;;;;;;1.20;1.13;;;12.60;99.90;;;;;;5009813;28;20487;-81
2021/03/22 13:13:24;;;;;;;1.50;0.50;;;12.70;99.90;;;;;;5009916;28;20042;-82
2021/03/22 13:15:52;;;;;;;1.45;1.00;;;12.90;99.90;;;;;;5010189;28;20479;-79
2021/03/22 13:18:22;;;;;;;0.57;0.57;;;12.80;99.90;;;;;;5077614;28;20129;-83
2021/03/22 13:21:01;;;;;;;0.30;0.30;;;13.10;99.90;;;;;;5010079;28;20032;-79
2021/03/22 13:23:28;;;;;;;0.80;0.40;;;12.70;99.90;;;;;;5077557;28;20033;-81
2021/03/22 13:25:56;;;;;;;2.63;0.68;;;12.70;99.90;;;;;;5009944;28;20034;-79
2021/03/22 13:28:28;;;;;;;3.17;0.60;;;12.80;99.90;;;;;;5010197;28;20048;-82
2021/03/22 13:30:56;;;;;;;0.50;0.50;;;12.60;99.90;;;;;;5010186;28;20036;-80